Kezdőlap
METAR-TAF:

METAR-TAF

Repülőterek :

Tri-City Airport

Parsons, Kansas, Amerikai Egyesült Államok

földrajzi szélesség: 37-19-40N, földrajzi hosszúság: 095-30-15W, magasság: 274 m

Jelenlegi meteorológiai megfigyelések

A jelentés 21 perccel ezelõtt készült, 03:52 UTC
Dél-délkeleti szél 4 kt
Hőmérséklet 27°C
Páratartalom 58%
Légköri nyomás 1018 hPa
Látótávolság: 12.9 km
Derült ég

METAR: KPPF 220352Z AUTO 15004KT 8SM CLR 27/18 A3006 RMK AO2 SLP168 T02670183

Idő: 23:13 (04:13 UTC)


TAF: hiányzik

Meteorológiai megfigyelések és előrejelzések több, mint 4000 repülőtéren (METAR és TAF jelentéseket).

A térképen piros és sárga pontok jelzik az elérhető meteorológiai állomásokat.

Mozgassa az egeret a pont fölött, hogy megjelenjen az állomás neve.

Azután kattintson az időjárási megfigyelések és előrejelzések megtekintéséhez.

A térkép megváltoztatása: kattintson a fekete keresztel jelölt zöld gombra ráközelítéshez, a vonallal jelölt zöld gombra távolításhoz, vagy a zöld nyilakra a szomszédos térképek eléréséhez.


METAR-TAF: